sensor_id;sensor_type;location;lat;lon;timestamp;P1;durP1;ratioP1;P2;durP2;ratioP2
21645;SDS011;10984;45.712;4.800;2023-02-24T00:02:13;45.83;;;21.92;;
21645;SDS011;10984;45.712;4.800;2023-02-24T00:04:39;35.90;;;20.77;;
21645;SDS011;10984;45.712;4.800;2023-02-24T00:07:08;37.55;;;19.98;;
21645;SDS011;10984;45.712;4.800;2023-02-24T00:09:36;36.65;;;19.20;;
21645;SDS011;10984;45.712;4.800;2023-02-24T00:14:48;35.50;;;18.55;;
21645;SDS011;10984;45.712;4.800;2023-02-24T00:17:14;38.13;;;19.52;;
21645;SDS011;10984;45.712;4.800;2023-02-24T00:19:40;36.60;;;19.98;;
21645;SDS011;10984;45.712;4.800;2023-02-24T00:22:06;36.97;;;19.55;;
21645;SDS011;10984;45.712;4.800;2023-02-24T00:24:33;34.47;;;18.25;;
21645;SDS011;10984;45.712;4.800;2023-02-24T00:27:00;33.10;;;19.10;;
21645;SDS011;10984;45.712;4.800;2023-02-24T00:29:31;36.92;;;18.77;;
21645;SDS011;10984;45.712;4.800;2023-02-24T00:31:57;35.38;;;18.52;;
21645;SDS011;10984;45.712;4.800;2023-02-24T00:37:08;34.42;;;18.50;;
21645;SDS011;10984;45.712;4.800;2023-02-24T00:39:34;40.97;;;19.42;;
21645;SDS011;10984;45.712;4.800;2023-02-24T00:42:02;38.22;;;20.05;;
21645;SDS011;10984;45.712;4.800;2023-02-24T00:44:33;30.90;;;18.13;;
21645;SDS011;10984;45.712;4.800;2023-02-24T00:47:00;31.58;;;18.38;;
21645;SDS011;10984;45.712;4.800;2023-02-24T00:49:28;33.60;;;18.13;;
21645;SDS011;10984;45.712;4.800;2023-02-24T00:51:55;40.72;;;18.02;;
21645;SDS011;10984;45.712;4.800;2023-02-24T00:54:22;38.53;;;18.00;;
21645;SDS011;10984;45.712;4.800;2023-02-24T00:56:52;34.50;;;17.88;;
21645;SDS011;10984;45.712;4.800;2023-02-24T00:59:18;38.80;;;16.77;;
21645;SDS011;10984;45.712;4.800;2023-02-24T01:01:46;33.55;;;17.58;;
21645;SDS011;10984;45.712;4.800;2023-02-24T01:04:14;31.30;;;16.52;;
21645;SDS011;10984;45.712;4.800;2023-02-24T01:06:41;36.65;;;18.60;;
21645;SDS011;10984;45.712;4.800;2023-02-24T01:11:55;36.17;;;18.05;;
21645;SDS011;10984;45.712;4.800;2023-02-24T01:14:40;36.58;;;17.80;;
21645;SDS011;10984;45.712;4.800;2023-02-24T01:17:09;36.85;;;18.45;;
21645;SDS011;10984;45.712;4.800;2023-02-24T01:19:35;35.08;;;18.75;;
21645;SDS011;10984;45.712;4.800;2023-02-24T01:22:02;34.65;;;17.52;;
21645;SDS011;10984;45.712;4.800;2023-02-24T01:24:30;37.22;;;17.75;;
21645;SDS011;10984;45.712;4.800;2023-02-24T01:27:16;37.05;;;17.20;;
21645;SDS011;10984;45.712;4.800;2023-02-24T01:30:00;32.95;;;17.30;;
21645;SDS011;10984;45.712;4.800;2023-02-24T01:32:28;32.83;;;17.83;;
21645;SDS011;10984;45.712;4.800;2023-02-24T01:34:55;32.42;;;17.50;;
21645;SDS011;10984;45.712;4.800;2023-02-24T01:37:21;29.23;;;15.52;;
21645;SDS011;10984;45.712;4.800;2023-02-24T01:39:48;32.15;;;16.42;;
21645;SDS011;10984;45.712;4.800;2023-02-24T01:42:15;33.50;;;15.70;;
21645;SDS011;10984;45.712;4.800;2023-02-24T01:45:03;32.80;;;16.58;;
21645;SDS011;10984;45.712;4.800;2023-02-24T01:47:36;28.08;;;14.60;;
21645;SDS011;10984;45.712;4.800;2023-02-24T01:50:02;25.92;;;14.13;;
21645;SDS011;10984;45.712;4.800;2023-02-24T01:52:30;26.38;;;13.23;;
21645;SDS011;10984;45.712;4.800;2023-02-24T01:55:03;26.05;;;13.80;;
21645;SDS011;10984;45.712;4.800;2023-02-24T01:57:52;29.70;;;14.88;;
21645;SDS011;10984;45.712;4.800;2023-02-24T02:00:20;24.85;;;13.20;;
21645;SDS011;10984;45.712;4.800;2023-02-24T02:05:51;26.02;;;13.30;;
21645;SDS011;10984;45.712;4.800;2023-02-24T02:08:22;26.27;;;14.20;;
21645;SDS011;10984;45.712;4.800;2023-02-24T02:10:49;28.85;;;14.68;;
21645;SDS011;10984;45.712;4.800;2023-02-24T02:13:22;30.98;;;15.07;;
21645;SDS011;10984;45.712;4.800;2023-02-24T02:18:37;24.00;;;13.20;;
21645;SDS011;10984;45.712;4.800;2023-02-24T02:39:06;27.13;;;11.00;;
21645;SDS011;10984;45.712;4.800;2023-02-24T02:41:55;23.95;;;11.77;;
21645;SDS011;10984;45.712;4.800;2023-02-24T02:47:47;25.38;;;12.02;;
21645;SDS011;10984;45.712;4.800;2023-02-24T02:53:03;36.28;;;17.92;;
21645;SDS011;10984;45.712;4.800;2023-02-24T02:58:19;35.63;;;17.35;;
21645;SDS011;10984;45.712;4.800;2023-02-24T03:00:55;35.20;;;15.57;;
21645;SDS011;10984;45.712;4.800;2023-02-24T03:03:44;32.80;;;16.15;;
21645;SDS011;10984;45.712;4.800;2023-02-24T03:06:14;36.40;;;15.52;;
21645;SDS011;10984;45.712;4.800;2023-02-24T03:08:42;41.42;;;18.15;;
21645;SDS011;10984;45.712;4.800;2023-02-24T03:11:22;31.95;;;16.63;;
21645;SDS011;10984;45.712;4.800;2023-02-24T03:13:48;35.88;;;17.20;;
21645;SDS011;10984;45.712;4.800;2023-02-24T03:16:16;30.50;;;16.15;;
21645;SDS011;10984;45.712;4.800;2023-02-24T03:18:44;40.17;;;18.50;;
21645;SDS011;10984;45.712;4.800;2023-02-24T03:24:02;38.42;;;18.55;;
21645;SDS011;10984;45.712;4.800;2023-02-24T03:29:36;38.10;;;17.92;;
21645;SDS011;10984;45.712;4.800;2023-02-24T03:32:11;33.00;;;16.98;;
21645;SDS011;10984;45.712;4.800;2023-02-24T03:35:16;32.13;;;15.73;;
21645;SDS011;10984;45.712;4.800;2023-02-24T03:37:46;31.20;;;16.38;;
21645;SDS011;10984;45.712;4.800;2023-02-24T03:40:13;39.72;;;16.65;;
21645;SDS011;10984;45.712;4.800;2023-02-24T03:42:42;32.00;;;16.35;;
21645;SDS011;10984;45.712;4.800;2023-02-24T03:45:11;32.13;;;16.48;;
21645;SDS011;10984;45.712;4.800;2023-02-24T03:47:37;34.35;;;16.80;;
21645;SDS011;10984;45.712;4.800;2023-02-24T03:50:09;36.30;;;17.08;;
21645;SDS011;10984;45.712;4.800;2023-02-24T03:52:49;33.90;;;16.35;;
21645;SDS011;10984;45.712;4.800;2023-02-24T04:07:37;39.70;;;17.33;;
21645;SDS011;10984;45.712;4.800;2023-02-24T04:18:53;36.40;;;17.35;;
21645;SDS011;10984;45.712;4.800;2023-02-24T04:21:38;34.28;;;17.75;;
21645;SDS011;10984;45.712;4.800;2023-02-24T04:24:07;37.67;;;18.58;;
21645;SDS011;10984;45.712;4.800;2023-02-24T04:26:38;33.80;;;17.88;;
21645;SDS011;10984;45.712;4.800;2023-02-24T04:29:09;36.72;;;19.23;;
21645;SDS011;10984;45.712;4.800;2023-02-24T04:31:42;37.40;;;17.25;;
21645;SDS011;10984;45.712;4.800;2023-02-24T04:34:26;42.00;;;17.95;;
21645;SDS011;10984;45.712;4.800;2023-02-24T04:36:56;35.63;;;18.52;;
21645;SDS011;10984;45.712;4.800;2023-02-24T04:39:23;39.65;;;18.27;;
21645;SDS011;10984;45.712;4.800;2023-02-24T04:41:49;39.78;;;18.27;;
21645;SDS011;10984;45.712;4.800;2023-02-24T04:44:16;46.20;;;19.45;;
21645;SDS011;10984;45.712;4.800;2023-02-24T04:46:44;40.00;;;17.42;;
21645;SDS011;10984;45.712;4.800;2023-02-24T04:49:10;36.47;;;18.90;;
21645;SDS011;10984;45.712;4.800;2023-02-24T04:51:36;36.78;;;18.70;;
21645;SDS011;10984;45.712;4.800;2023-02-24T04:54:06;42.15;;;19.95;;
21645;SDS011;10984;45.712;4.800;2023-02-24T04:56:51;44.67;;;19.58;;
21645;SDS011;10984;45.712;4.800;2023-02-24T04:59:18;39.05;;;18.45;;
21645;SDS011;10984;45.712;4.800;2023-02-24T05:01:45;35.40;;;17.20;;
21645;SDS011;10984;45.712;4.800;2023-02-24T05:04:15;39.67;;;17.95;;
21645;SDS011;10984;45.712;4.800;2023-02-24T05:06:42;34.33;;;16.67;;
21645;SDS011;10984;45.712;4.800;2023-02-24T05:09:12;42.60;;;17.60;;
21645;SDS011;10984;45.712;4.800;2023-02-24T05:11:58;34.08;;;17.40;;
21645;SDS011;10984;45.712;4.800;2023-02-24T05:14:24;34.85;;;16.88;;
21645;SDS011;10984;45.712;4.800;2023-02-24T05:16:50;38.10;;;18.35;;
21645;SDS011;10984;45.712;4.800;2023-02-24T05:19:16;40.17;;;18.30;;
21645;SDS011;10984;45.712;4.800;2023-02-24T05:22:01;33.72;;;17.73;;
21645;SDS011;10984;45.712;4.800;2023-02-24T05:24:29;35.70;;;17.10;;
21645;SDS011;10984;45.712;4.800;2023-02-24T05:26:55;34.72;;;16.70;;
21645;SDS011;10984;45.712;4.800;2023-02-24T05:29:40;33.42;;;16.50;;
21645;SDS011;10984;45.712;4.800;2023-02-24T05:32:05;35.17;;;17.55;;
21645;SDS011;10984;45.712;4.800;2023-02-24T05:34:32;29.60;;;15.32;;
21645;SDS011;10984;45.712;4.800;2023-02-24T05:36:59;29.45;;;15.70;;
21645;SDS011;10984;45.712;4.800;2023-02-24T05:39:26;29.50;;;15.45;;
21645;SDS011;10984;45.712;4.800;2023-02-24T05:41:52;31.67;;;16.58;;
21645;SDS011;10984;45.712;4.800;2023-02-24T05:44:21;32.20;;;16.77;;
21645;SDS011;10984;45.712;4.800;2023-02-24T05:46:50;29.20;;;14.43;;
21645;SDS011;10984;45.712;4.800;2023-02-24T05:49:23;29.95;;;15.20;;
21645;SDS011;10984;45.712;4.800;2023-02-24T05:51:54;30.83;;;15.30;;
21645;SDS011;10984;45.712;4.800;2023-02-24T05:59:56;27.80;;;14.68;;
21645;SDS011;10984;45.712;4.800;2023-02-24T06:02:22;33.60;;;14.82;;
21645;SDS011;10984;45.712;4.800;2023-02-24T06:05:07;33.75;;;16.30;;
21645;SDS011;10984;45.712;4.800;2023-02-24T06:07:33;36.15;;;14.30;;
21645;SDS011;10984;45.712;4.800;2023-02-24T06:09:59;25.90;;;14.48;;
21645;SDS011;10984;45.712;4.800;2023-02-24T06:14:52;29.13;;;14.68;;
21645;SDS011;10984;45.712;4.800;2023-02-24T06:17:19;32.85;;;15.35;;
21645;SDS011;10984;45.712;4.800;2023-02-24T06:19:47;30.50;;;15.63;;
21645;SDS011;10984;45.712;4.800;2023-02-24T06:22:16;31.42;;;15.27;;
21645;SDS011;10984;45.712;4.800;2023-02-24T06:24:44;29.52;;;15.50;;
21645;SDS011;10984;45.712;4.800;2023-02-24T06:27:13;34.15;;;16.60;;
21645;SDS011;10984;45.712;4.800;2023-02-24T06:29:59;33.13;;;15.73;;
21645;SDS011;10984;45.712;4.800;2023-02-24T06:32:24;32.97;;;16.20;;
21645;SDS011;10984;45.712;4.800;2023-02-24T06:34:50;33.17;;;16.80;;
21645;SDS011;10984;45.712;4.800;2023-02-24T06:37:17;28.33;;;14.77;;
21645;SDS011;10984;45.712;4.800;2023-02-24T06:39:43;30.73;;;15.10;;
21645;SDS011;10984;45.712;4.800;2023-02-24T06:42:10;28.63;;;14.40;;
21645;SDS011;10984;45.712;4.800;2023-02-24T06:44:36;29.85;;;14.52;;
21645;SDS011;10984;45.712;4.800;2023-02-24T06:47:04;30.45;;;15.05;;
21645;SDS011;10984;45.712;4.800;2023-02-24T06:49:31;28.80;;;14.23;;
21645;SDS011;10984;45.712;4.800;2023-02-24T06:51:57;30.55;;;14.23;;
21645;SDS011;10984;45.712;4.800;2023-02-24T06:54:24;33.10;;;14.15;;
21645;SDS011;10984;45.712;4.800;2023-02-24T06:56:52;34.45;;;16.08;;
21645;SDS011;10984;45.712;4.800;2023-02-24T06:59:18;28.38;;;14.23;;
21645;SDS011;10984;45.712;4.800;2023-02-24T07:02:03;30.65;;;14.88;;
21645;SDS011;10984;45.712;4.800;2023-02-24T07:04:28;37.78;;;15.85;;
21645;SDS011;10984;45.712;4.800;2023-02-24T07:09:38;27.30;;;13.75;;
21645;SDS011;10984;45.712;4.800;2023-02-24T07:12:05;29.92;;;13.88;;
21645;SDS011;10984;45.712;4.800;2023-02-24T07:14:32;28.92;;;14.32;;
21645;SDS011;10984;45.712;4.800;2023-02-24T07:16:58;27.67;;;15.27;;
21645;SDS011;10984;45.712;4.800;2023-02-24T07:19:25;34.95;;;15.10;;
21645;SDS011;10984;45.712;4.800;2023-02-24T07:24:39;32.00;;;15.38;;
21645;SDS011;10984;45.712;4.800;2023-02-24T07:27:11;31.42;;;15.25;;
21645;SDS011;10984;45.712;4.800;2023-02-24T07:29:45;41.92;;;16.95;;
21645;SDS011;10984;45.712;4.800;2023-02-24T07:32:13;28.88;;;14.90;;
21645;SDS011;10984;45.712;4.800;2023-02-24T07:34:39;29.65;;;14.52;;
21645;SDS011;10984;45.712;4.800;2023-02-24T07:37:04;32.63;;;15.02;;
21645;SDS011;10984;45.712;4.800;2023-02-24T07:39:32;25.88;;;13.70;;
21645;SDS011;10984;45.712;4.800;2023-02-24T07:41:58;27.05;;;13.88;;
21645;SDS011;10984;45.712;4.800;2023-02-24T07:44:24;33.20;;;15.10;;
21645;SDS011;10984;45.712;4.800;2023-02-24T07:46:50;30.58;;;14.10;;
21645;SDS011;10984;45.712;4.800;2023-02-24T07:49:17;24.15;;;12.70;;
21645;SDS011;10984;45.712;4.800;2023-02-24T07:51:45;29.25;;;15.93;;
21645;SDS011;10984;45.712;4.800;2023-02-24T07:54:31;31.60;;;16.77;;
21645;SDS011;10984;45.712;4.800;2023-02-24T07:56:58;29.38;;;15.00;;
21645;SDS011;10984;45.712;4.800;2023-02-24T08:02:26;27.40;;;13.65;;
21645;SDS011;10984;45.712;4.800;2023-02-24T08:04:53;26.23;;;12.68;;
21645;SDS011;10984;45.712;4.800;2023-02-24T08:07:19;26.70;;;14.38;;
21645;SDS011;10984;45.712;4.800;2023-02-24T08:09:48;23.58;;;13.40;;
21645;SDS011;10984;45.712;4.800;2023-02-24T08:12:32;25.80;;;13.27;;
21645;SDS011;10984;45.712;4.800;2023-02-24T08:14:59;25.80;;;14.20;;
21645;SDS011;10984;45.712;4.800;2023-02-24T08:17:33;27.52;;;13.98;;
21645;SDS011;10984;45.712;4.800;2023-02-24T08:19:59;28.13;;;14.70;;
21645;SDS011;10984;45.712;4.800;2023-02-24T08:22:44;30.98;;;13.63;;
21645;SDS011;10984;45.712;4.800;2023-02-24T08:25:16;31.70;;;15.25;;
21645;SDS011;10984;45.712;4.800;2023-02-24T08:27:53;26.00;;;13.57;;
21645;SDS011;10984;45.712;4.800;2023-02-24T08:30:38;28.80;;;13.48;;
21645;SDS011;10984;45.712;4.800;2023-02-24T08:33:10;26.40;;;13.45;;
21645;SDS011;10984;45.712;4.800;2023-02-24T08:35:39;27.30;;;14.70;;
21645;SDS011;10984;45.712;4.800;2023-02-24T08:38:09;24.10;;;13.18;;
21645;SDS011;10984;45.712;4.800;2023-02-24T08:40:39;25.73;;;14.15;;
21645;SDS011;10984;45.712;4.800;2023-02-24T08:43:27;30.23;;;15.80;;
21645;SDS011;10984;45.712;4.800;2023-02-24T08:45:55;25.75;;;14.27;;
21645;SDS011;10984;45.712;4.800;2023-02-24T08:48:23;27.17;;;13.88;;
21645;SDS011;10984;45.712;4.800;2023-02-24T08:54:00;22.92;;;14.15;;
21645;SDS011;10984;45.712;4.800;2023-02-24T08:56:49;29.20;;;14.85;;
21645;SDS011;10984;45.712;4.800;2023-02-24T08:59:20;29.23;;;14.40;;
21645;SDS011;10984;45.712;4.800;2023-02-24T09:02:10;25.35;;;14.20;;
21645;SDS011;10984;45.712;4.800;2023-02-24T09:04:57;28.42;;;14.70;;
21645;SDS011;10984;45.712;4.800;2023-02-24T09:07:37;29.92;;;15.57;;
21645;SDS011;10984;45.712;4.800;2023-02-24T09:10:11;26.20;;;14.55;;
21645;SDS011;10984;45.712;4.800;2023-02-24T09:12:42;24.48;;;13.95;;
21645;SDS011;10984;45.712;4.800;2023-02-24T09:15:08;27.05;;;14.25;;
21645;SDS011;10984;45.712;4.800;2023-02-24T09:17:40;28.55;;;14.55;;
21645;SDS011;10984;45.712;4.800;2023-02-24T09:20:26;29.33;;;14.02;;
21645;SDS011;10984;45.712;4.800;2023-02-24T09:23:01;28.52;;;14.73;;
21645;SDS011;10984;45.712;4.800;2023-02-24T09:28:31;26.30;;;14.73;;
21645;SDS011;10984;45.712;4.800;2023-02-24T09:31:12;31.67;;;14.40;;
21645;SDS011;10984;45.712;4.800;2023-02-24T09:33:41;27.58;;;14.40;;
21645;SDS011;10984;45.712;4.800;2023-02-24T09:36:09;27.98;;;15.60;;
21645;SDS011;10984;45.712;4.800;2023-02-24T09:38:56;25.58;;;15.13;;
21645;SDS011;10984;45.712;4.800;2023-02-24T09:52:45;34.60;;;18.35;;
21645;SDS011;10984;45.712;4.800;2023-02-24T10:09:47;37.35;;;19.30;;
21645;SDS011;10984;45.712;4.800;2023-02-24T10:17:57;38.50;;;17.40;;
21645;SDS011;10984;45.712;4.800;2023-02-24T10:20:35;35.10;;;18.38;;
21645;SDS011;10984;45.712;4.800;2023-02-24T10:34:48;32.22;;;17.10;;
21645;SDS011;10984;45.712;4.800;2023-02-24T10:37:16;33.63;;;18.55;;
21645;SDS011;10984;45.712;4.800;2023-02-24T10:40:02;35.90;;;17.00;;
21645;SDS011;10984;45.712;4.800;2023-02-24T10:42:34;35.13;;;17.88;;
21645;SDS011;10984;45.712;4.800;2023-02-24T10:48:23;35.85;;;17.55;;
21645;SDS011;10984;45.712;4.800;2023-02-24T10:50:50;30.88;;;15.88;;
21645;SDS011;10984;45.712;4.800;2023-02-24T10:53:19;27.23;;;14.73;;
21645;SDS011;10984;45.712;4.800;2023-02-24T10:56:08;26.40;;;13.93;;
21645;SDS011;10984;45.712;4.800;2023-02-24T11:02:13;28.52;;;14.05;;
21645;SDS011;10984;45.712;4.800;2023-02-24T11:04:53;26.60;;;13.48;;
21645;SDS011;10984;45.712;4.800;2023-02-24T11:07:38;27.38;;;12.65;;
21645;SDS011;10984;45.712;4.800;2023-02-24T11:13:30;23.35;;;12.25;;
21645;SDS011;10984;45.712;4.800;2023-02-24T11:16:16;21.58;;;10.00;;
21645;SDS011;10984;45.712;4.800;2023-02-24T11:19:01;20.77;;;10.80;;
21645;SDS011;10984;45.712;4.800;2023-02-24T11:21:29;24.38;;;9.70;;
21645;SDS011;10984;45.712;4.800;2023-02-24T11:23:56;18.70;;;10.15;;
21645;SDS011;10984;45.712;4.800;2023-02-24T11:40:57;22.55;;;6.40;;
21645;SDS011;10984;45.712;4.800;2023-02-24T11:43:54;14.82;;;4.13;;
21645;SDS011;10984;45.712;4.800;2023-02-24T11:49:28;15.85;;;5.20;;
21645;SDS011;10984;45.712;4.800;2023-02-24T11:52:00;16.70;;;5.28;;
21645;SDS011;10984;45.712;4.800;2023-02-24T11:54:39;18.40;;;5.75;;
21645;SDS011;10984;45.712;4.800;2023-02-24T12:02:53;12.02;;;5.95;;
21645;SDS011;10984;45.712;4.800;2023-02-24T12:05:42;14.15;;;5.75;;
21645;SDS011;10984;45.712;4.800;2023-02-24T12:11:05;12.98;;;5.18;;
21645;SDS011;10984;45.712;4.800;2023-02-24T12:16:42;11.32;;;4.28;;
21645;SDS011;10984;45.712;4.800;2023-02-24T12:22:22;20.27;;;5.60;;
21645;SDS011;10984;45.712;4.800;2023-02-24T12:24:50;16.33;;;4.38;;
21645;SDS011;10984;45.712;4.800;2023-02-24T12:56:26;14.10;;;3.42;;
21645;SDS011;10984;45.712;4.800;2023-02-24T12:59:16;17.77;;;3.08;;
21645;SDS011;10984;45.712;4.800;2023-02-24T13:16:25;22.30;;;3.75;;
21645;SDS011;10984;45.712;4.800;2023-02-24T13:19:02;10.38;;;2.50;;
21645;SDS011;10984;45.712;4.800;2023-02-24T13:21:28;12.68;;;3.97;;
21645;SDS011;10984;45.712;4.800;2023-02-24T13:23:55;12.20;;;3.00;;
21645;SDS011;10984;45.712;4.800;2023-02-24T13:26:23;12.65;;;3.25;;
21645;SDS011;10984;45.712;4.800;2023-02-24T13:29:02;15.90;;;3.50;;
21645;SDS011;10984;45.712;4.800;2023-02-24T13:31:49;12.52;;;3.35;;
21645;SDS011;10984;45.712;4.800;2023-02-24T13:45:59;10.23;;;3.15;;
21645;SDS011;10984;45.712;4.800;2023-02-24T13:54:20;11.35;;;3.83;;
21645;SDS011;10984;45.712;4.800;2023-02-24T13:57:16;12.68;;;4.30;;
21645;SDS011;10984;45.712;4.800;2023-02-24T14:02:47;27.40;;;11.65;;
21645;SDS011;10984;45.712;4.800;2023-02-24T14:07:58;4.63;;;1.20;;
21645;SDS011;10984;45.712;4.800;2023-02-24T14:10:26;4.60;;;1.00;;
21645;SDS011;10984;45.712;4.800;2023-02-24T14:13:05;3.67;;;1.35;;
21645;SDS011;10984;45.712;4.800;2023-02-24T14:15:40;2.53;;;0.68;;
21645;SDS011;10984;45.712;4.800;2023-02-24T14:20:54;1.50;;;0.43;;
21645;SDS011;10984;45.712;4.800;2023-02-24T14:26:07;2.28;;;0.57;;
21645;SDS011;10984;45.712;4.800;2023-02-24T14:28:37;3.92;;;0.68;;
21645;SDS011;10984;45.712;4.800;2023-02-24T14:31:08;0.63;;;0.30;;
21645;SDS011;10984;45.712;4.800;2023-02-24T14:33:39;0.55;;;0.30;;
21645;SDS011;10984;45.712;4.800;2023-02-24T14:44:45;1.48;;;0.45;;
21645;SDS011;10984;45.712;4.800;2023-02-24T14:47:30;2.08;;;0.60;;
21645;SDS011;10984;45.712;4.800;2023-02-24T14:49:58;1.90;;;0.55;;
21645;SDS011;10984;45.712;4.800;2023-02-24T14:55:30;2.78;;;0.50;;
21645;SDS011;10984;45.712;4.800;2023-02-24T15:00:48;2.72;;;0.85;;
21645;SDS011;10984;45.712;4.800;2023-02-24T15:03:19;5.10;;;0.70;;
21645;SDS011;10984;45.712;4.800;2023-02-24T15:05:54;2.65;;;0.40;;
21645;SDS011;10984;45.712;4.800;2023-02-24T15:11:26;1.77;;;0.77;;
21645;SDS011;10984;45.712;4.800;2023-02-24T15:13:54;2.33;;;0.80;;
21645;SDS011;10984;45.712;4.800;2023-02-24T15:16:26;1.45;;;0.60;;
21645;SDS011;10984;45.712;4.800;2023-02-24T15:18:54;1.80;;;0.70;;
21645;SDS011;10984;45.712;4.800;2023-02-24T15:38:31;2.78;;;1.02;;
21645;SDS011;10984;45.712;4.800;2023-02-24T15:40:59;3.08;;;0.93;;
21645;SDS011;10984;45.712;4.800;2023-02-24T15:48:59;2.17;;;1.00;;
21645;SDS011;10984;45.712;4.800;2023-02-24T15:56:59;1.80;;;0.80;;
21645;SDS011;10984;45.712;4.800;2023-02-24T15:59:26;2.63;;;0.95;;
21645;SDS011;10984;45.712;4.800;2023-02-24T16:01:53;2.35;;;0.85;;
21645;SDS011;10984;45.712;4.800;2023-02-24T16:04:19;3.40;;;0.95;;
21645;SDS011;10984;45.712;4.800;2023-02-24T16:06:46;2.45;;;0.93;;
21645;SDS011;10984;45.712;4.800;2023-02-24T16:09:18;3.33;;;1.05;;
21645;SDS011;10984;45.712;4.800;2023-02-24T16:11:52;3.33;;;0.95;;
21645;SDS011;10984;45.712;4.800;2023-02-24T16:14:18;4.32;;;1.70;;
21645;SDS011;10984;45.712;4.800;2023-02-24T16:16:44;6.25;;;1.45;;
21645;SDS011;10984;45.712;4.800;2023-02-24T16:19:12;3.67;;;1.38;;
21645;SDS011;10984;45.712;4.800;2023-02-24T16:21:39;5.30;;;1.52;;
21645;SDS011;10984;45.712;4.800;2023-02-24T16:24:05;2.90;;;1.10;;
21645;SDS011;10984;45.712;4.800;2023-02-24T16:26:31;4.50;;;1.30;;
21645;SDS011;10984;45.712;4.800;2023-02-24T16:29:17;3.13;;;1.30;;
21645;SDS011;10984;45.712;4.800;2023-02-24T16:31:42;4.32;;;1.63;;
21645;SDS011;10984;45.712;4.800;2023-02-24T16:34:16;5.30;;;1.75;;
21645;SDS011;10984;45.712;4.800;2023-02-24T16:36:42;3.85;;;1.63;;
21645;SDS011;10984;45.712;4.800;2023-02-24T16:39:08;5.05;;;2.08;;
21645;SDS011;10984;45.712;4.800;2023-02-24T16:41:36;4.25;;;1.75;;
21645;SDS011;10984;45.712;4.800;2023-02-24T16:44:02;3.90;;;1.67;;
21645;SDS011;10984;45.712;4.800;2023-02-24T16:46:28;4.53;;;1.42;;
21645;SDS011;10984;45.712;4.800;2023-02-24T16:48:59;3.78;;;1.60;;
21645;SDS011;10984;45.712;4.800;2023-02-24T16:51:25;3.80;;;1.92;;
21645;SDS011;10984;45.712;4.800;2023-02-24T16:53:52;4.00;;;1.63;;
21645;SDS011;10984;45.712;4.800;2023-02-24T16:56:18;3.45;;;1.35;;
21645;SDS011;10984;45.712;4.800;2023-02-24T16:58:44;3.72;;;1.73;;
21645;SDS011;10984;45.712;4.800;2023-02-24T17:01:12;5.90;;;1.90;;
21645;SDS011;10984;45.712;4.800;2023-02-24T17:03:45;4.43;;;1.67;;
21645;SDS011;10984;45.712;4.800;2023-02-24T17:06:12;5.13;;;1.73;;
21645;SDS011;10984;45.712;4.800;2023-02-24T17:08:38;5.15;;;1.70;;
21645;SDS011;10984;45.712;4.800;2023-02-24T17:11:08;4.00;;;1.60;;
21645;SDS011;10984;45.712;4.800;2023-02-24T17:13:38;4.82;;;2.15;;
21645;SDS011;10984;45.712;4.800;2023-02-24T17:16:04;5.65;;;1.75;;
21645;SDS011;10984;45.712;4.800;2023-02-24T17:18:30;5.68;;;2.00;;
21645;SDS011;10984;45.712;4.800;2023-02-24T17:20:56;5.93;;;2.08;;
21645;SDS011;10984;45.712;4.800;2023-02-24T17:23:21;3.85;;;1.80;;
21645;SDS011;10984;45.712;4.800;2023-02-24T17:25:50;5.53;;;1.73;;
21645;SDS011;10984;45.712;4.800;2023-02-24T17:28:18;9.27;;;2.60;;
21645;SDS011;10984;45.712;4.800;2023-02-24T17:30:43;5.47;;;2.05;;
21645;SDS011;10984;45.712;4.800;2023-02-24T17:33:09;5.05;;;2.05;;
21645;SDS011;10984;45.712;4.800;2023-02-24T17:35:38;6.82;;;2.53;;
21645;SDS011;10984;45.712;4.800;2023-02-24T17:38:09;7.68;;;2.28;;
21645;SDS011;10984;45.712;4.800;2023-02-24T17:40:54;6.38;;;2.75;;
21645;SDS011;10984;45.712;4.800;2023-02-24T17:43:21;7.55;;;3.33;;
21645;SDS011;10984;45.712;4.800;2023-02-24T17:45:47;6.40;;;2.67;;
21645;SDS011;10984;45.712;4.800;2023-02-24T17:48:13;8.02;;;3.60;;
21645;SDS011;10984;45.712;4.800;2023-02-24T17:50:40;12.73;;;4.50;;
21645;SDS011;10984;45.712;4.800;2023-02-24T17:53:06;8.40;;;3.72;;
21645;SDS011;10984;45.712;4.800;2023-02-24T17:55:32;6.70;;;3.58;;
21645;SDS011;10984;45.712;4.800;2023-02-24T17:57:58;8.65;;;3.90;;
21645;SDS011;10984;45.712;4.800;2023-02-24T18:00:24;8.65;;;3.42;;
21645;SDS011;10984;45.712;4.800;2023-02-24T18:02:51;12.80;;;3.58;;
21645;SDS011;10984;45.712;4.800;2023-02-24T18:05:17;9.57;;;2.35;;
21645;SDS011;10984;45.712;4.800;2023-02-24T18:07:43;5.13;;;2.45;;
21645;SDS011;10984;45.712;4.800;2023-02-24T18:10:09;7.25;;;2.90;;
21645;SDS011;10984;45.712;4.800;2023-02-24T18:12:35;5.50;;;2.70;;
21645;SDS011;10984;45.712;4.800;2023-02-24T18:15:01;5.95;;;2.55;;
21645;SDS011;10984;45.712;4.800;2023-02-24T18:17:28;4.93;;;2.42;;
21645;SDS011;10984;45.712;4.800;2023-02-24T18:19:53;6.85;;;3.08;;
21645;SDS011;10984;45.712;4.800;2023-02-24T18:22:19;9.30;;;3.80;;
21645;SDS011;10984;45.712;4.800;2023-02-24T18:24:45;6.55;;;3.47;;
21645;SDS011;10984;45.712;4.800;2023-02-24T18:27:11;9.00;;;3.33;;
21645;SDS011;10984;45.712;4.800;2023-02-24T18:29:37;7.03;;;2.78;;
21645;SDS011;10984;45.712;4.800;2023-02-24T18:32:02;10.50;;;3.35;;
21645;SDS011;10984;45.712;4.800;2023-02-24T18:34:29;8.43;;;3.67;;
21645;SDS011;10984;45.712;4.800;2023-02-24T18:36:54;7.53;;;3.33;;
21645;SDS011;10984;45.712;4.800;2023-02-24T18:39:20;8.43;;;3.33;;
21645;SDS011;10984;45.712;4.800;2023-02-24T18:41:46;6.72;;;2.63;;
21645;SDS011;10984;45.712;4.800;2023-02-24T18:44:12;7.07;;;2.97;;
21645;SDS011;10984;45.712;4.800;2023-02-24T18:46:37;6.88;;;3.40;;
21645;SDS011;10984;45.712;4.800;2023-02-24T18:49:03;5.32;;;2.42;;
21645;SDS011;10984;45.712;4.800;2023-02-24T18:51:31;6.95;;;2.42;;
21645;SDS011;10984;45.712;4.800;2023-02-24T18:53:57;4.57;;;2.38;;
21645;SDS011;10984;45.712;4.800;2023-02-24T18:56:25;5.82;;;2.63;;
21645;SDS011;10984;45.712;4.800;2023-02-24T18:58:53;43.10;;;15.75;;
21645;SDS011;10984;45.712;4.800;2023-02-24T19:04:05;20.98;;;8.60;;
21645;SDS011;10984;45.712;4.800;2023-02-24T19:06:32;10.57;;;3.42;;
21645;SDS011;10984;45.712;4.800;2023-02-24T19:11:45;8.35;;;3.33;;
21645;SDS011;10984;45.712;4.800;2023-02-24T19:14:11;7.35;;;3.85;;
21645;SDS011;10984;45.712;4.800;2023-02-24T19:16:38;9.32;;;4.85;;
21645;SDS011;10984;45.712;4.800;2023-02-24T19:19:04;7.72;;;4.40;;
21645;SDS011;10984;45.712;4.800;2023-02-24T19:21:31;10.60;;;5.22;;
21645;SDS011;10984;45.712;4.800;2023-02-24T19:26:42;10.13;;;5.20;;
21645;SDS011;10984;45.712;4.800;2023-02-24T19:29:10;13.20;;;4.80;;
21645;SDS011;10984;45.712;4.800;2023-02-24T19:31:36;11.75;;;5.65;;
21645;SDS011;10984;45.712;4.800;2023-02-24T19:34:03;10.40;;;5.07;;
21645;SDS011;10984;45.712;4.800;2023-02-24T19:36:32;11.05;;;5.35;;
21645;SDS011;10984;45.712;4.800;2023-02-24T19:38:59;15.02;;;5.15;;
21645;SDS011;10984;45.712;4.800;2023-02-24T19:41:25;9.93;;;5.10;;
21645;SDS011;10984;45.712;4.800;2023-02-24T19:43:51;12.10;;;5.43;;
21645;SDS011;10984;45.712;4.800;2023-02-24T19:46:17;11.63;;;4.97;;
21645;SDS011;10984;45.712;4.800;2023-02-24T19:48:42;11.35;;;4.80;;
21645;SDS011;10984;45.712;4.800;2023-02-24T19:51:14;8.05;;;4.60;;
21645;SDS011;10984;45.712;4.800;2023-02-24T19:54:00;12.27;;;6.47;;